sensor_id;sensor_type;location;lat;lon;timestamp;P1;durP1;ratioP1;P2;durP2;ratioP2
35518;SDS011;21627;48.216;16.482;2022-12-07T00:01:41;15.80;;;9.82;;
35518;SDS011;21627;48.216;16.482;2022-12-07T00:04:11;14.77;;;8.60;;
35518;SDS011;21627;48.216;16.482;2022-12-07T00:06:42;14.18;;;8.95;;
35518;SDS011;21627;48.216;16.482;2022-12-07T00:09:13;16.95;;;9.35;;
35518;SDS011;21627;48.216;16.482;2022-12-07T00:11:43;16.02;;;9.82;;
35518;SDS011;21627;48.216;16.482;2022-12-07T00:14:12;13.65;;;8.65;;
35518;SDS011;21627;48.216;16.482;2022-12-07T00:16:41;15.07;;;8.30;;
35518;SDS011;21627;48.216;16.482;2022-12-07T00:19:13;14.70;;;9.30;;
35518;SDS011;21627;48.216;16.482;2022-12-07T00:21:40;13.05;;;8.40;;
35518;SDS011;21627;48.216;16.482;2022-12-07T00:24:09;14.68;;;8.60;;
35518;SDS011;21627;48.216;16.482;2022-12-07T00:26:38;14.38;;;8.68;;
35518;SDS011;21627;48.216;16.482;2022-12-07T00:29:11;15.55;;;8.35;;
35518;SDS011;21627;48.216;16.482;2022-12-07T00:31:45;15.55;;;9.48;;
35518;SDS011;21627;48.216;16.482;2022-12-07T00:34:14;13.18;;;8.02;;
35518;SDS011;21627;48.216;16.482;2022-12-07T00:36:47;14.10;;;8.32;;
35518;SDS011;21627;48.216;16.482;2022-12-07T00:39:15;14.10;;;8.63;;
35518;SDS011;21627;48.216;16.482;2022-12-07T00:41:42;12.95;;;8.45;;
35518;SDS011;21627;48.216;16.482;2022-12-07T00:44:10;14.30;;;8.50;;
35518;SDS011;21627;48.216;16.482;2022-12-07T00:46:37;15.63;;;9.52;;
35518;SDS011;21627;48.216;16.482;2022-12-07T00:49:04;13.93;;;8.77;;
35518;SDS011;21627;48.216;16.482;2022-12-07T00:51:31;13.30;;;8.75;;
35518;SDS011;21627;48.216;16.482;2022-12-07T00:53:58;16.02;;;8.35;;
35518;SDS011;21627;48.216;16.482;2022-12-07T00:56:26;13.48;;;8.90;;
35518;SDS011;21627;48.216;16.482;2022-12-07T00:59:02;14.40;;;9.68;;
35518;SDS011;21627;48.216;16.482;2022-12-07T01:01:34;14.20;;;9.20;;
35518;SDS011;21627;48.216;16.482;2022-12-07T01:04:03;13.85;;;9.38;;
35518;SDS011;21627;48.216;16.482;2022-12-07T01:06:31;16.35;;;9.75;;
35518;SDS011;21627;48.216;16.482;2022-12-07T01:08:58;16.42;;;10.60;;
35518;SDS011;21627;48.216;16.482;2022-12-07T01:11:28;17.20;;;10.23;;
35518;SDS011;21627;48.216;16.482;2022-12-07T01:13:56;14.85;;;9.98;;
35518;SDS011;21627;48.216;16.482;2022-12-07T01:16:25;17.20;;;10.23;;
35518;SDS011;21627;48.216;16.482;2022-12-07T01:18:59;14.77;;;9.55;;
35518;SDS011;21627;48.216;16.482;2022-12-07T01:21:29;13.35;;;9.18;;
35518;SDS011;21627;48.216;16.482;2022-12-07T01:24:03;19.03;;;11.07;;
35518;SDS011;21627;48.216;16.482;2022-12-07T01:26:33;16.60;;;10.68;;
35518;SDS011;21627;48.216;16.482;2022-12-07T01:29:00;16.50;;;10.45;;
35518;SDS011;21627;48.216;16.482;2022-12-07T01:31:27;18.08;;;11.00;;
35518;SDS011;21627;48.216;16.482;2022-12-07T01:33:56;19.13;;;11.43;;
35518;SDS011;21627;48.216;16.482;2022-12-07T01:36:27;19.10;;;11.77;;
35518;SDS011;21627;48.216;16.482;2022-12-07T01:39:02;22.90;;;12.75;;
35518;SDS011;21627;48.216;16.482;2022-12-07T01:41:33;17.00;;;11.27;;
35518;SDS011;21627;48.216;16.482;2022-12-07T01:44:14;17.55;;;11.10;;
35518;SDS011;21627;48.216;16.482;2022-12-07T01:46:53;20.52;;;11.68;;
35518;SDS011;21627;48.216;16.482;2022-12-07T01:49:31;19.58;;;12.02;;
35518;SDS011;21627;48.216;16.482;2022-12-07T01:52:04;18.73;;;11.75;;
35518;SDS011;21627;48.216;16.482;2022-12-07T01:54:51;19.23;;;11.65;;
35518;SDS011;21627;48.216;16.482;2022-12-07T01:57:30;17.33;;;10.73;;
35518;SDS011;21627;48.216;16.482;2022-12-07T01:59:59;20.63;;;11.52;;
35518;SDS011;21627;48.216;16.482;2022-12-07T02:02:30;19.05;;;11.13;;
35518;SDS011;21627;48.216;16.482;2022-12-07T02:05:03;24.90;;;11.38;;
35518;SDS011;21627;48.216;16.482;2022-12-07T02:07:36;18.70;;;11.80;;
35518;SDS011;21627;48.216;16.482;2022-12-07T02:10:12;20.33;;;11.85;;
35518;SDS011;21627;48.216;16.482;2022-12-07T02:13:00;17.52;;;11.40;;
35518;SDS011;21627;48.216;16.482;2022-12-07T02:24:29;22.00;;;12.37;;
35518;SDS011;21627;48.216;16.482;2022-12-07T02:30:10;18.58;;;12.00;;
35518;SDS011;21627;48.216;16.482;2022-12-07T02:38:38;21.85;;;11.65;;
35518;SDS011;21627;48.216;16.482;2022-12-07T02:41:19;18.40;;;11.50;;
35518;SDS011;21627;48.216;16.482;2022-12-07T02:43:55;20.88;;;11.57;;
35518;SDS011;21627;48.216;16.482;2022-12-07T02:46:50;19.83;;;11.93;;
35518;SDS011;21627;48.216;16.482;2022-12-07T02:49:27;18.05;;;11.30;;
35518;SDS011;21627;48.216;16.482;2022-12-07T02:51:56;17.83;;;10.57;;
35518;SDS011;21627;48.216;16.482;2022-12-07T02:54:23;20.23;;;11.73;;
35518;SDS011;21627;48.216;16.482;2022-12-07T03:00:26;18.65;;;11.90;;
35518;SDS011;21627;48.216;16.482;2022-12-07T03:03:06;18.98;;;10.80;;
35518;SDS011;21627;48.216;16.482;2022-12-07T03:08:31;19.17;;;11.80;;
35518;SDS011;21627;48.216;16.482;2022-12-07T03:11:06;17.85;;;11.13;;
35518;SDS011;21627;48.216;16.482;2022-12-07T03:13:59;19.40;;;11.70;;
35518;SDS011;21627;48.216;16.482;2022-12-07T03:17:08;20.98;;;11.82;;
35518;SDS011;21627;48.216;16.482;2022-12-07T03:19:51;17.33;;;10.32;;
35518;SDS011;21627;48.216;16.482;2022-12-07T03:22:22;17.95;;;10.82;;
35518;SDS011;21627;48.216;16.482;2022-12-07T03:24:54;18.98;;;12.13;;
35518;SDS011;21627;48.216;16.482;2022-12-07T03:27:29;18.63;;;10.80;;
35518;SDS011;21627;48.216;16.482;2022-12-07T03:30:04;18.40;;;10.93;;
35518;SDS011;21627;48.216;16.482;2022-12-07T03:35:30;17.42;;;10.88;;
35518;SDS011;21627;48.216;16.482;2022-12-07T03:38:17;18.23;;;10.80;;
35518;SDS011;21627;48.216;16.482;2022-12-07T03:54:54;18.30;;;10.57;;
35518;SDS011;21627;48.216;16.482;2022-12-07T03:57:46;20.95;;;11.23;;
35518;SDS011;21627;48.216;16.482;2022-12-07T04:00:18;19.17;;;11.27;;
35518;SDS011;21627;48.216;16.482;2022-12-07T04:02:46;18.23;;;10.73;;
35518;SDS011;21627;48.216;16.482;2022-12-07T04:05:13;19.33;;;10.88;;
35518;SDS011;21627;48.216;16.482;2022-12-07T04:07:40;18.73;;;11.63;;
35518;SDS011;21627;48.216;16.482;2022-12-07T04:10:08;17.13;;;10.30;;
35518;SDS011;21627;48.216;16.482;2022-12-07T04:12:36;20.27;;;10.88;;
35518;SDS011;21627;48.216;16.482;2022-12-07T04:15:03;18.42;;;10.55;;
35518;SDS011;21627;48.216;16.482;2022-12-07T04:17:31;17.85;;;10.75;;
35518;SDS011;21627;48.216;16.482;2022-12-07T04:19:59;19.15;;;10.80;;
35518;SDS011;21627;48.216;16.482;2022-12-07T04:22:26;16.70;;;10.80;;
35518;SDS011;21627;48.216;16.482;2022-12-07T04:24:53;18.48;;;10.30;;
35518;SDS011;21627;48.216;16.482;2022-12-07T04:27:20;16.85;;;9.80;;
35518;SDS011;21627;48.216;16.482;2022-12-07T04:29:48;18.08;;;9.80;;
35518;SDS011;21627;48.216;16.482;2022-12-07T04:32:15;19.38;;;9.93;;
35518;SDS011;21627;48.216;16.482;2022-12-07T04:34:42;17.15;;;9.93;;
35518;SDS011;21627;48.216;16.482;2022-12-07T04:37:09;15.98;;;10.40;;
35518;SDS011;21627;48.216;16.482;2022-12-07T04:39:36;18.40;;;9.90;;
35518;SDS011;21627;48.216;16.482;2022-12-07T04:42:03;15.57;;;9.10;;
35518;SDS011;21627;48.216;16.482;2022-12-07T04:44:30;15.88;;;9.88;;
35518;SDS011;21627;48.216;16.482;2022-12-07T04:46:58;15.10;;;9.60;;
35518;SDS011;21627;48.216;16.482;2022-12-07T04:49:25;15.68;;;10.07;;
35518;SDS011;21627;48.216;16.482;2022-12-07T04:51:52;17.70;;;9.85;;
35518;SDS011;21627;48.216;16.482;2022-12-07T04:54:20;20.02;;;9.43;;
35518;SDS011;21627;48.216;16.482;2022-12-07T04:56:47;15.85;;;9.10;;
35518;SDS011;21627;48.216;16.482;2022-12-07T04:59:14;17.60;;;9.48;;
35518;SDS011;21627;48.216;16.482;2022-12-07T05:01:43;16.58;;;9.27;;
35518;SDS011;21627;48.216;16.482;2022-12-07T05:04:10;17.13;;;8.88;;
35518;SDS011;21627;48.216;16.482;2022-12-07T05:06:37;13.75;;;9.07;;
35518;SDS011;21627;48.216;16.482;2022-12-07T05:09:04;14.23;;;8.48;;
35518;SDS011;21627;48.216;16.482;2022-12-07T05:11:32;15.85;;;9.02;;
35518;SDS011;21627;48.216;16.482;2022-12-07T05:14:07;12.25;;;8.68;;
35518;SDS011;21627;48.216;16.482;2022-12-07T05:16:46;14.40;;;8.20;;
35518;SDS011;21627;48.216;16.482;2022-12-07T05:19:16;15.00;;;9.25;;
35518;SDS011;21627;48.216;16.482;2022-12-07T05:21:44;14.55;;;9.27;;
35518;SDS011;21627;48.216;16.482;2022-12-07T05:24:12;18.38;;;9.43;;
35518;SDS011;21627;48.216;16.482;2022-12-07T05:26:41;13.57;;;8.20;;
35518;SDS011;21627;48.216;16.482;2022-12-07T05:29:10;14.07;;;8.00;;
35518;SDS011;21627;48.216;16.482;2022-12-07T05:31:42;16.52;;;8.95;;
35518;SDS011;21627;48.216;16.482;2022-12-07T05:34:10;15.88;;;8.68;;
35518;SDS011;21627;48.216;16.482;2022-12-07T05:36:38;13.90;;;8.50;;
35518;SDS011;21627;48.216;16.482;2022-12-07T05:39:05;14.93;;;8.35;;
35518;SDS011;21627;48.216;16.482;2022-12-07T05:41:33;13.55;;;8.20;;
35518;SDS011;21627;48.216;16.482;2022-12-07T05:44:19;17.77;;;8.98;;
35518;SDS011;21627;48.216;16.482;2022-12-07T05:46:46;15.50;;;8.90;;
35518;SDS011;21627;48.216;16.482;2022-12-07T05:49:13;13.20;;;7.68;;
35518;SDS011;21627;48.216;16.482;2022-12-07T05:51:41;14.18;;;8.27;;
35518;SDS011;21627;48.216;16.482;2022-12-07T05:54:08;20.95;;;9.23;;
35518;SDS011;21627;48.216;16.482;2022-12-07T05:56:35;13.10;;;8.05;;
35518;SDS011;21627;48.216;16.482;2022-12-07T05:59:02;13.60;;;7.80;;
35518;SDS011;21627;48.216;16.482;2022-12-07T06:01:51;11.93;;;7.47;;
35518;SDS011;21627;48.216;16.482;2022-12-07T06:04:20;18.88;;;8.10;;
35518;SDS011;21627;48.216;16.482;2022-12-07T06:06:48;13.70;;;8.13;;
35518;SDS011;21627;48.216;16.482;2022-12-07T06:09:15;11.82;;;7.40;;
35518;SDS011;21627;48.216;16.482;2022-12-07T06:11:44;12.98;;;8.20;;
35518;SDS011;21627;48.216;16.482;2022-12-07T06:16:58;11.65;;;7.35;;
35518;SDS011;21627;48.216;16.482;2022-12-07T06:19:26;11.88;;;7.47;;
35518;SDS011;21627;48.216;16.482;2022-12-07T06:21:53;12.25;;;7.78;;
35518;SDS011;21627;48.216;16.482;2022-12-07T06:24:21;13.25;;;7.38;;
35518;SDS011;21627;48.216;16.482;2022-12-07T06:26:49;12.77;;;7.75;;
35518;SDS011;21627;48.216;16.482;2022-12-07T06:29:16;13.63;;;8.27;;
35518;SDS011;21627;48.216;16.482;2022-12-07T06:31:44;14.98;;;7.65;;
35518;SDS011;21627;48.216;16.482;2022-12-07T06:34:13;11.30;;;7.35;;
35518;SDS011;21627;48.216;16.482;2022-12-07T06:36:43;13.82;;;7.35;;
35518;SDS011;21627;48.216;16.482;2022-12-07T06:39:10;12.20;;;7.32;;
35518;SDS011;21627;48.216;16.482;2022-12-07T06:41:38;16.35;;;8.77;;
35518;SDS011;21627;48.216;16.482;2022-12-07T06:44:05;12.02;;;7.47;;
35518;SDS011;21627;48.216;16.482;2022-12-07T06:46:33;11.25;;;6.93;;
35518;SDS011;21627;48.216;16.482;2022-12-07T06:49:02;12.98;;;7.35;;
35518;SDS011;21627;48.216;16.482;2022-12-07T06:51:31;10.98;;;7.22;;
35518;SDS011;21627;48.216;16.482;2022-12-07T06:54:02;13.65;;;7.47;;
35518;SDS011;21627;48.216;16.482;2022-12-07T06:56:30;11.63;;;6.78;;
35518;SDS011;21627;48.216;16.482;2022-12-07T06:58:57;13.75;;;7.32;;
35518;SDS011;21627;48.216;16.482;2022-12-07T07:01:24;12.48;;;7.63;;
35518;SDS011;21627;48.216;16.482;2022-12-07T07:03:51;11.57;;;7.32;;
35518;SDS011;21627;48.216;16.482;2022-12-07T07:06:18;12.75;;;6.60;;
35518;SDS011;21627;48.216;16.482;2022-12-07T07:08:45;10.05;;;5.93;;
35518;SDS011;21627;48.216;16.482;2022-12-07T07:11:12;11.35;;;6.40;;
35518;SDS011;21627;48.216;16.482;2022-12-07T07:13:39;13.35;;;6.22;;
35518;SDS011;21627;48.216;16.482;2022-12-07T07:16:06;12.47;;;6.80;;
35518;SDS011;21627;48.216;16.482;2022-12-07T07:18:34;14.30;;;6.60;;
35518;SDS011;21627;48.216;16.482;2022-12-07T07:21:02;14.55;;;7.03;;
35518;SDS011;21627;48.216;16.482;2022-12-07T07:23:30;9.38;;;6.03;;
35518;SDS011;21627;48.216;16.482;2022-12-07T07:25:57;12.13;;;6.65;;
35518;SDS011;21627;48.216;16.482;2022-12-07T07:28:24;9.23;;;5.97;;
35518;SDS011;21627;48.216;16.482;2022-12-07T07:30:57;10.65;;;6.68;;
35518;SDS011;21627;48.216;16.482;2022-12-07T07:33:25;11.20;;;6.45;;
35518;SDS011;21627;48.216;16.482;2022-12-07T07:35:52;10.70;;;6.28;;
35518;SDS011;21627;48.216;16.482;2022-12-07T07:38:19;10.43;;;6.88;;
35518;SDS011;21627;48.216;16.482;2022-12-07T07:40:46;16.85;;;6.90;;
35518;SDS011;21627;48.216;16.482;2022-12-07T07:43:14;9.93;;;5.85;;
35518;SDS011;21627;48.216;16.482;2022-12-07T07:45:41;10.00;;;6.43;;
35518;SDS011;21627;48.216;16.482;2022-12-07T07:48:08;11.00;;;6.45;;
35518;SDS011;21627;48.216;16.482;2022-12-07T07:50:35;10.82;;;6.20;;
35518;SDS011;21627;48.216;16.482;2022-12-07T07:53:02;9.07;;;5.85;;
35518;SDS011;21627;48.216;16.482;2022-12-07T07:55:29;10.40;;;6.00;;
35518;SDS011;21627;48.216;16.482;2022-12-07T07:57:56;7.97;;;5.75;;
35518;SDS011;21627;48.216;16.482;2022-12-07T08:00:24;12.20;;;6.05;;
35518;SDS011;21627;48.216;16.482;2022-12-07T08:02:51;10.27;;;6.00;;
35518;SDS011;21627;48.216;16.482;2022-12-07T08:05:18;9.88;;;6.35;;
35518;SDS011;21627;48.216;16.482;2022-12-07T08:07:45;10.18;;;6.60;;
35518;SDS011;21627;48.216;16.482;2022-12-07T08:10:15;8.63;;;5.63;;
35518;SDS011;21627;48.216;16.482;2022-12-07T08:12:52;10.03;;;6.13;;
35518;SDS011;21627;48.216;16.482;2022-12-07T08:15:38;8.43;;;5.65;;
35518;SDS011;21627;48.216;16.482;2022-12-07T08:18:08;10.68;;;6.50;;
35518;SDS011;21627;48.216;16.482;2022-12-07T08:20:36;8.57;;;5.85;;
35518;SDS011;21627;48.216;16.482;2022-12-07T08:23:04;7.88;;;5.65;;
35518;SDS011;21627;48.216;16.482;2022-12-07T08:25:33;8.45;;;5.43;;
35518;SDS011;21627;48.216;16.482;2022-12-07T08:28:00;9.15;;;5.80;;
35518;SDS011;21627;48.216;16.482;2022-12-07T08:30:28;11.60;;;5.25;;
35518;SDS011;21627;48.216;16.482;2022-12-07T08:32:56;11.20;;;6.32;;
35518;SDS011;21627;48.216;16.482;2022-12-07T08:35:24;10.45;;;6.03;;
35518;SDS011;21627;48.216;16.482;2022-12-07T08:37:52;9.48;;;5.95;;
35518;SDS011;21627;48.216;16.482;2022-12-07T08:40:19;9.40;;;6.07;;
35518;SDS011;21627;48.216;16.482;2022-12-07T08:42:51;9.00;;;6.28;;
35518;SDS011;21627;48.216;16.482;2022-12-07T08:45:18;9.85;;;5.35;;
35518;SDS011;21627;48.216;16.482;2022-12-07T08:47:59;8.40;;;5.93;;
35518;SDS011;21627;48.216;16.482;2022-12-07T08:50:37;9.82;;;5.93;;
35518;SDS011;21627;48.216;16.482;2022-12-07T08:53:12;9.45;;;5.75;;
35518;SDS011;21627;48.216;16.482;2022-12-07T08:55:40;9.35;;;5.63;;
35518;SDS011;21627;48.216;16.482;2022-12-07T08:58:07;6.97;;;5.25;;
35518;SDS011;21627;48.216;16.482;2022-12-07T09:00:34;8.07;;;5.57;;
35518;SDS011;21627;48.216;16.482;2022-12-07T09:03:01;8.02;;;5.35;;
35518;SDS011;21627;48.216;16.482;2022-12-07T09:05:28;10.30;;;4.85;;
35518;SDS011;21627;48.216;16.482;2022-12-07T09:07:56;9.48;;;5.65;;
35518;SDS011;21627;48.216;16.482;2022-12-07T09:10:28;6.70;;;4.80;;
35518;SDS011;21627;48.216;16.482;2022-12-07T09:12:56;7.65;;;5.00;;
35518;SDS011;21627;48.216;16.482;2022-12-07T09:15:30;8.20;;;5.22;;
35518;SDS011;21627;48.216;16.482;2022-12-07T09:17:58;7.38;;;5.18;;
35518;SDS011;21627;48.216;16.482;2022-12-07T09:20:25;7.88;;;6.07;;
35518;SDS011;21627;48.216;16.482;2022-12-07T09:22:53;7.32;;;4.28;;
35518;SDS011;21627;48.216;16.482;2022-12-07T09:25:20;11.77;;;5.78;;
35518;SDS011;21627;48.216;16.482;2022-12-07T09:27:48;9.35;;;5.00;;
35518;SDS011;21627;48.216;16.482;2022-12-07T09:30:21;7.95;;;5.18;;
35518;SDS011;21627;48.216;16.482;2022-12-07T09:32:48;8.65;;;4.82;;
35518;SDS011;21627;48.216;16.482;2022-12-07T09:35:15;7.05;;;4.85;;
35518;SDS011;21627;48.216;16.482;2022-12-07T09:37:43;8.75;;;5.28;;
35518;SDS011;21627;48.216;16.482;2022-12-07T09:40:10;10.02;;;5.38;;
35518;SDS011;21627;48.216;16.482;2022-12-07T09:42:39;6.20;;;4.80;;
35518;SDS011;21627;48.216;16.482;2022-12-07T09:45:16;7.88;;;5.32;;
35518;SDS011;21627;48.216;16.482;2022-12-07T09:47:50;8.70;;;4.93;;
35518;SDS011;21627;48.216;16.482;2022-12-07T09:50:19;6.43;;;4.80;;
35518;SDS011;21627;48.216;16.482;2022-12-07T09:52:50;6.80;;;4.68;;
35518;SDS011;21627;48.216;16.482;2022-12-07T09:55:24;6.53;;;4.95;;
35518;SDS011;21627;48.216;16.482;2022-12-07T09:57:55;7.60;;;5.07;;
35518;SDS011;21627;48.216;16.482;2022-12-07T10:00:25;9.85;;;5.72;;
35518;SDS011;21627;48.216;16.482;2022-12-07T10:02:59;13.52;;;5.13;;
35518;SDS011;21627;48.216;16.482;2022-12-07T10:08:24;7.72;;;5.55;;
35518;SDS011;21627;48.216;16.482;2022-12-07T10:10:53;8.20;;;4.93;;
35518;SDS011;21627;48.216;16.482;2022-12-07T10:13:33;8.63;;;5.38;;
35518;SDS011;21627;48.216;16.482;2022-12-07T10:16:57;10.57;;;5.60;;
35518;SDS011;21627;48.216;16.482;2022-12-07T10:24:40;7.90;;;4.88;;
35518;SDS011;21627;48.216;16.482;2022-12-07T10:27:17;5.40;;;4.20;;
35518;SDS011;21627;48.216;16.482;2022-12-07T10:29:58;7.35;;;4.55;;
35518;SDS011;21627;48.216;16.482;2022-12-07T10:37:51;6.22;;;4.53;;
35518;SDS011;21627;48.216;16.482;2022-12-07T10:40:30;11.82;;;4.30;;
35518;SDS011;21627;48.216;16.482;2022-12-07T10:45:57;4.57;;;3.47;;
35518;SDS011;21627;48.216;16.482;2022-12-07T10:48:44;6.55;;;4.65;;
35518;SDS011;21627;48.216;16.482;2022-12-07T10:54:52;9.40;;;4.75;;
35518;SDS011;21627;48.216;16.482;2022-12-07T11:00:15;4.68;;;3.30;;
35518;SDS011;21627;48.216;16.482;2022-12-07T11:12:26;7.97;;;4.65;;
35518;SDS011;21627;48.216;16.482;2022-12-07T11:17:47;5.07;;;3.95;;
35518;SDS011;21627;48.216;16.482;2022-12-07T11:20:35;6.80;;;4.30;;
35518;SDS011;21627;48.216;16.482;2022-12-07T11:37:58;5.70;;;3.72;;
35518;SDS011;21627;48.216;16.482;2022-12-07T11:40:39;5.03;;;3.78;;
35518;SDS011;21627;48.216;16.482;2022-12-07T11:46:06;8.80;;;3.47;;
35518;SDS011;21627;48.216;16.482;2022-12-07T11:48:43;9.10;;;4.38;;
35518;SDS011;21627;48.216;16.482;2022-12-07T11:51:45;6.35;;;4.82;;
35518;SDS011;21627;48.216;16.482;2022-12-07T11:54:19;5.95;;;4.30;;
35518;SDS011;21627;48.216;16.482;2022-12-07T11:56:56;6.43;;;4.60;;
35518;SDS011;21627;48.216;16.482;2022-12-07T11:59:36;7.50;;;4.90;;
35518;SDS011;21627;48.216;16.482;2022-12-07T12:02:13;5.82;;;4.43;;
35518;SDS011;21627;48.216;16.482;2022-12-07T12:04:47;7.45;;;4.82;;
35518;SDS011;21627;48.216;16.482;2022-12-07T12:07:35;6.80;;;4.85;;
35518;SDS011;21627;48.216;16.482;2022-12-07T12:19:04;5.13;;;3.85;;
35518;SDS011;21627;48.216;16.482;2022-12-07T12:21:44;5.50;;;4.28;;
35518;SDS011;21627;48.216;16.482;2022-12-07T12:24:20;11.02;;;4.20;;
35518;SDS011;21627;48.216;16.482;2022-12-07T12:26:53;11.73;;;4.18;;
35518;SDS011;21627;48.216;16.482;2022-12-07T12:29:51;6.35;;;3.90;;
35518;SDS011;21627;48.216;16.482;2022-12-07T12:32:40;7.45;;;3.55;;
35518;SDS011;21627;48.216;16.482;2022-12-07T12:41:00;6.70;;;3.90;;
35518;SDS011;21627;48.216;16.482;2022-12-07T12:57:33;5.07;;;3.53;;
35518;SDS011;21627;48.216;16.482;2022-12-07T13:00:23;5.88;;;3.90;;
35518;SDS011;21627;48.216;16.482;2022-12-07T13:02:55;6.22;;;3.88;;
35518;SDS011;21627;48.216;16.482;2022-12-07T13:05:29;7.40;;;3.97;;
35518;SDS011;21627;48.216;16.482;2022-12-07T13:08:17;8.68;;;4.40;;
35518;SDS011;21627;48.216;16.482;2022-12-07T13:10:51;5.75;;;4.07;;
35518;SDS011;21627;48.216;16.482;2022-12-07T13:15:46;7.35;;;5.10;;
35518;SDS011;21627;48.216;16.482;2022-12-07T13:21:44;6.85;;;4.63;;
35518;SDS011;21627;48.216;16.482;2022-12-07T13:23:56;7.40;;;4.95;;
35518;SDS011;21627;48.216;16.482;2022-12-07T13:29:12;7.68;;;5.25;;
35518;SDS011;21627;48.216;16.482;2022-12-07T13:37:24;9.82;;;5.03;;
35518;SDS011;21627;48.216;16.482;2022-12-07T13:40:28;11.13;;;5.00;;
35518;SDS011;21627;48.216;16.482;2022-12-07T13:43:01;8.52;;;4.78;;
35518;SDS011;21627;48.216;16.482;2022-12-07T13:45:38;7.35;;;5.13;;
35518;SDS011;21627;48.216;16.482;2022-12-07T13:51:24;9.80;;;5.47;;
35518;SDS011;21627;48.216;16.482;2022-12-07T13:53:59;10.20;;;5.95;;
35518;SDS011;21627;48.216;16.482;2022-12-07T13:56:35;8.25;;;5.30;;
35518;SDS011;21627;48.216;16.482;2022-12-07T13:59:04;8.20;;;5.60;;
35518;SDS011;21627;48.216;16.482;2022-12-07T14:01:49;8.43;;;5.47;;
35518;SDS011;21627;48.216;16.482;2022-12-07T14:04:32;8.75;;;5.50;;
35518;SDS011;21627;48.216;16.482;2022-12-07T14:07:18;10.88;;;5.47;;
35518;SDS011;21627;48.216;16.482;2022-12-07T14:09:57;6.93;;;4.80;;
35518;SDS011;21627;48.216;16.482;2022-12-07T14:12:35;9.38;;;4.97;;
35518;SDS011;21627;48.216;16.482;2022-12-07T14:15:03;9.07;;;5.53;;
35518;SDS011;21627;48.216;16.482;2022-12-07T14:17:32;8.35;;;5.22;;
35518;SDS011;21627;48.216;16.482;2022-12-07T14:19:59;9.63;;;5.68;;
35518;SDS011;21627;48.216;16.482;2022-12-07T14:22:34;11.75;;;4.93;;
35518;SDS011;21627;48.216;16.482;2022-12-07T14:27:46;9.10;;;5.22;;
35518;SDS011;21627;48.216;16.482;2022-12-07T14:30:17;7.18;;;5.20;;
35518;SDS011;21627;48.216;16.482;2022-12-07T14:32:46;12.73;;;5.95;;
35518;SDS011;21627;48.216;16.482;2022-12-07T14:35:19;8.35;;;5.60;;
35518;SDS011;21627;48.216;16.482;2022-12-07T14:37:47;11.82;;;7.63;;
35518;SDS011;21627;48.216;16.482;2022-12-07T14:40:20;9.73;;;6.28;;
35518;SDS011;21627;48.216;16.482;2022-12-07T14:42:51;9.60;;;6.07;;
35518;SDS011;21627;48.216;16.482;2022-12-07T14:45:33;9.35;;;5.95;;
35518;SDS011;21627;48.216;16.482;2022-12-07T14:48:00;11.43;;;6.78;;
35518;SDS011;21627;48.216;16.482;2022-12-07T14:50:51;10.05;;;5.82;;
35518;SDS011;21627;48.216;16.482;2022-12-07T14:53:40;10.13;;;5.72;;
35518;SDS011;21627;48.216;16.482;2022-12-07T14:56:22;10.40;;;6.80;;
35518;SDS011;21627;48.216;16.482;2022-12-07T14:58:51;10.82;;;6.65;;
35518;SDS011;21627;48.216;16.482;2022-12-07T15:01:18;12.00;;;6.43;;
35518;SDS011;21627;48.216;16.482;2022-12-07T15:03:45;11.48;;;6.68;;
35518;SDS011;21627;48.216;16.482;2022-12-07T15:06:16;9.90;;;6.63;;
35518;SDS011;21627;48.216;16.482;2022-12-07T15:08:44;11.48;;;6.72;;
35518;SDS011;21627;48.216;16.482;2022-12-07T15:11:12;10.00;;;5.88;;
35518;SDS011;21627;48.216;16.482;2022-12-07T15:13:41;9.63;;;6.55;;
35518;SDS011;21627;48.216;16.482;2022-12-07T15:16:27;10.35;;;6.68;;
35518;SDS011;21627;48.216;16.482;2022-12-07T15:19:12;10.77;;;5.72;;
35518;SDS011;21627;48.216;16.482;2022-12-07T15:21:55;7.97;;;5.80;;
35518;SDS011;21627;48.216;16.482;2022-12-07T15:24:24;9.35;;;6.07;;
35518;SDS011;21627;48.216;16.482;2022-12-07T15:26:52;8.98;;;6.00;;
35518;SDS011;21627;48.216;16.482;2022-12-07T15:29:19;10.75;;;6.30;;
35518;SDS011;21627;48.216;16.482;2022-12-07T15:31:49;13.57;;;7.32;;
35518;SDS011;21627;48.216;16.482;2022-12-07T15:34:24;15.32;;;7.35;;
35518;SDS011;21627;48.216;16.482;2022-12-07T15:36:53;12.95;;;7.90;;
35518;SDS011;21627;48.216;16.482;2022-12-07T15:39:20;10.57;;;6.88;;
35518;SDS011;21627;48.216;16.482;2022-12-07T15:41:48;11.98;;;7.50;;
35518;SDS011;21627;48.216;16.482;2022-12-07T15:44:16;11.68;;;7.22;;
35518;SDS011;21627;48.216;16.482;2022-12-07T15:47:01;13.93;;;7.65;;
35518;SDS011;21627;48.216;16.482;2022-12-07T15:49:30;11.35;;;7.63;;
35518;SDS011;21627;48.216;16.482;2022-12-07T15:51:57;13.23;;;7.93;;
35518;SDS011;21627;48.216;16.482;2022-12-07T15:54:25;11.82;;;7.93;;
35518;SDS011;21627;48.216;16.482;2022-12-07T15:56:54;12.40;;;7.50;;
35518;SDS011;21627;48.216;16.482;2022-12-07T15:59:22;14.80;;;8.85;;
35518;SDS011;21627;48.216;16.482;2022-12-07T16:01:51;12.48;;;7.97;;
35518;SDS011;21627;48.216;16.482;2022-12-07T16:04:19;13.70;;;8.20;;
35518;SDS011;21627;48.216;16.482;2022-12-07T16:06:46;13.25;;;8.43;;
35518;SDS011;21627;48.216;16.482;2022-12-07T16:09:14;12.90;;;8.18;;
35518;SDS011;21627;48.216;16.482;2022-12-07T16:11:41;13.77;;;8.10;;
35518;SDS011;21627;48.216;16.482;2022-12-07T16:14:08;17.48;;;8.27;;
35518;SDS011;21627;48.216;16.482;2022-12-07T16:16:35;13.00;;;8.18;;
35518;SDS011;21627;48.216;16.482;2022-12-07T16:19:03;11.98;;;7.80;;
35518;SDS011;21627;48.216;16.482;2022-12-07T16:21:30;12.73;;;7.68;;
35518;SDS011;21627;48.216;16.482;2022-12-07T16:23:57;13.27;;;8.48;;
35518;SDS011;21627;48.216;16.482;2022-12-07T16:26:25;16.27;;;9.43;;
35518;SDS011;21627;48.216;16.482;2022-12-07T16:28:53;14.48;;;8.57;;
35518;SDS011;21627;48.216;16.482;2022-12-07T16:31:23;18.80;;;7.80;;
35518;SDS011;21627;48.216;16.482;2022-12-07T16:33:53;14.55;;;8.10;;
35518;SDS011;21627;48.216;16.482;2022-12-07T16:36:23;13.48;;;8.07;;
35518;SDS011;21627;48.216;16.482;2022-12-07T16:39:12;12.80;;;8.13;;
35518;SDS011;21627;48.216;16.482;2022-12-07T16:41:40;15.70;;;8.93;;
35518;SDS011;21627;48.216;16.482;2022-12-07T16:44:09;13.63;;;7.95;;
35518;SDS011;21627;48.216;16.482;2022-12-07T16:46:39;14.35;;;9.13;;
35518;SDS011;21627;48.216;16.482;2022-12-07T16:49:10;14.10;;;8.88;;
35518;SDS011;21627;48.216;16.482;2022-12-07T16:51:40;14.85;;;8.88;;
35518;SDS011;21627;48.216;16.482;2022-12-07T16:54:09;17.08;;;8.48;;
35518;SDS011;21627;48.216;16.482;2022-12-07T16:56:38;13.98;;;8.80;;
35518;SDS011;21627;48.216;16.482;2022-12-07T16:59:05;14.05;;;8.90;;
35518;SDS011;21627;48.216;16.482;2022-12-07T17:01:33;13.20;;;7.90;;
35518;SDS011;21627;48.216;16.482;2022-12-07T17:04:02;12.25;;;8.35;;
35518;SDS011;21627;48.216;16.482;2022-12-07T17:06:30;14.02;;;8.90;;
35518;SDS011;21627;48.216;16.482;2022-12-07T17:08:58;15.68;;;8.63;;
35518;SDS011;21627;48.216;16.482;2022-12-07T17:11:26;13.32;;;8.02;;
35518;SDS011;21627;48.216;16.482;2022-12-07T17:13:57;15.15;;;8.98;;
35518;SDS011;21627;48.216;16.482;2022-12-07T17:19:12;12.98;;;8.43;;